Time;durP1;ratioP1;P1;durP2;ratioP2;P2;SDS_P1;SDS_P2;PMS_P1;PMS_P2;Temp;Humidity;BMP_temperature;BMP_pressure;BME280_temperature;BME280_humidity;BME280_pressure;Samples;Min_cycle;Max_cycle;Signal;HPM_P1;HPM_P2
2021/08/14 00:01:30;;;;;;;4.10;3.50;;;24.60;99.90;;;;;;5046883;28;20222;-87
2021/08/14 00:03:57;;;;;;;4.72;3.85;;;24.60;99.90;;;;;;5043197;28;20233;-87
2021/08/14 00:06:24;;;;;;;3.90;3.60;;;24.50;99.90;;;;;;5041309;28;20230;-87
2021/08/14 00:08:51;;;;;;;4.07;3.78;;;24.50;99.90;;;;;;5042917;28;20229;-87
2021/08/14 00:11:18;;;;;;;6.07;4.07;;;24.50;99.90;;;;;;5042851;28;20226;-84
2021/08/14 00:13:45;;;;;;;3.92;3.60;;;24.60;99.90;;;;;;5042727;28;20231;-83
2021/08/14 00:16:13;;;;;;;4.07;3.67;;;24.60;99.90;;;;;;5040339;28;20226;-83
2021/08/14 00:18:40;;;;;;;4.80;3.95;;;24.60;99.90;;;;;;5047038;28;20227;-84
2021/08/14 00:21:07;;;;;;;4.18;3.50;;;24.50;99.90;;;;;;5040245;28;20293;-85
2021/08/14 00:23:35;;;;;;;4.82;3.63;;;24.50;99.90;;;;;;5045604;28;20234;-84
2021/08/14 00:26:02;;;;;;;3.50;3.20;;;24.50;99.90;;;;;;5042027;28;20235;-84
2021/08/14 00:28:29;;;;;;;4.20;3.67;;;24.50;99.90;;;;;;5041940;28;20226;-84
2021/08/14 00:30:56;;;;;;;4.30;3.60;;;24.50;99.90;;;;;;5043704;28;20249;-84
2021/08/14 00:33:25;;;;;;;5.68;4.13;;;24.50;99.90;;;;;;5042366;28;20226;-83
2021/08/14 00:35:52;;;;;;;3.45;3.25;;;24.40;99.90;;;;;;5041451;28;20219;-83
2021/08/14 00:38:19;;;;;;;4.30;3.60;;;24.40;99.90;;;;;;5042273;28;20229;-84
2021/08/14 00:40:46;;;;;;;3.70;3.30;;;24.40;99.90;;;;;;5041337;28;20238;-84
2021/08/14 00:43:13;;;;;;;3.97;3.58;;;24.40;99.90;;;;;;5039470;28;20695;-84
2021/08/14 00:45:41;;;;;;;3.70;3.40;;;24.40;99.90;;;;;;5043255;28;20226;-84
2021/08/14 00:48:09;;;;;;;4.22;3.70;;;24.40;99.90;;;;;;5043967;28;20214;-86
2021/08/14 00:50:39;;;;;;;4.47;3.80;;;24.30;99.90;;;;;;5043021;28;20223;-85
2021/08/14 00:53:07;;;;;;;4.13;3.72;;;24.30;99.90;;;;;;5038684;28;20227;-85
2021/08/14 00:55:35;;;;;;;6.25;4.00;;;24.30;99.90;;;;;;5039353;28;20588;-85
2021/08/14 00:58:02;;;;;;;4.40;3.45;;;24.20;99.90;;;;;;5038355;28;20223;-85
2021/08/14 01:03:19;;;;;;;4.10;3.80;;;24.20;99.90;;;;;;5035059;28;20219;-75
2021/08/14 01:05:48;;;;;;;4.38;3.97;;;24.10;99.90;;;;;;5063951;28;20218;-76
2021/08/14 01:08:15;;;;;;;4.30;3.90;;;24.10;99.90;;;;;;5063748;28;20226;-76
2021/08/14 01:10:42;;;;;;;5.35;3.72;;;24.10;99.90;;;;;;5063704;28;20237;-77
2021/08/14 01:13:10;;;;;;;3.70;3.40;;;24.10;99.90;;;;;;5064045;28;20438;-75
2021/08/14 01:15:41;;;;;;;4.25;3.63;;;24.20;99.90;;;;;;5063856;28;20217;-76
2021/08/14 01:18:12;;;;;;;4.60;3.67;;;24.20;99.90;;;;;;5064774;28;20252;-75
2021/08/14 01:20:39;;;;;;;3.70;3.35;;;24.20;99.90;;;;;;5063237;28;20230;-76
2021/08/14 01:23:08;;;;;;;3.58;3.28;;;24.10;99.90;;;;;;5064099;28;20688;-75
2021/08/14 01:25:35;;;;;;;4.18;3.65;;;24.10;99.90;;;;;;5061794;28;20224;-76
2021/08/14 01:28:04;;;;;;;5.57;3.65;;;24.10;99.90;;;;;;5061961;28;20222;-77
2021/08/14 01:30:31;;;;;;;3.72;3.42;;;24.10;99.90;;;;;;5063299;28;20233;-75
2021/08/14 01:32:58;;;;;;;3.90;3.60;;;24.10;99.90;;;;;;5063297;28;20225;-76
2021/08/14 01:35:26;;;;;;;5.18;3.72;;;24.00;99.90;;;;;;5062548;28;20217;-76
2021/08/14 01:37:53;;;;;;;4.55;3.47;;;24.00;99.90;;;;;;5063686;28;20222;-76
2021/08/14 01:42:54;;;;;;;3.63;3.28;;;24.00;99.90;;;;;;5082660;22;20316;-69
2021/08/14 01:45:22;;;;;;;4.20;3.30;;;23.90;99.90;;;;;;5059357;28;20233;-69
2021/08/14 01:47:49;;;;;;;6.40;3.85;;;23.90;99.90;;;;;;5064810;28;20312;-69
2021/08/14 01:50:16;;;;;;;4.20;3.80;;;23.90;99.90;;;;;;5062490;28;20218;-69
2021/08/14 01:52:44;;;;;;;5.55;3.90;;;23.80;99.90;;;;;;5055321;28;20722;-69
2021/08/14 01:55:11;;;;;;;6.20;3.58;;;23.90;99.90;;;;;;5057773;28;20222;-69
2021/08/14 01:57:38;;;;;;;3.65;3.35;;;23.90;99.90;;;;;;5056312;28;20218;-69
2021/08/14 02:00:07;;;;;;;4.82;3.75;;;23.80;99.90;;;;;;5057125;28;20226;-71
2021/08/14 02:02:36;;;;;;;5.50;3.92;;;23.70;99.90;;;;;;5057243;28;20234;-69
2021/08/14 02:05:04;;;;;;;7.45;4.15;;;23.70;99.90;;;;;;5054707;28;20226;-69
2021/08/14 02:07:31;;;;;;;4.00;3.70;;;23.70;99.90;;;;;;5061688;28;20576;-69
2021/08/14 02:09:58;;;;;;;4.03;3.72;;;23.60;99.90;;;;;;5059084;28;20229;-69
2021/08/14 02:12:25;;;;;;;4.13;3.55;;;23.60;99.90;;;;;;5058815;28;20226;-69
2021/08/14 02:14:52;;;;;;;4.47;4.07;;;23.60;99.90;;;;;;5056886;28;20811;-69
2021/08/14 02:17:20;;;;;;;3.70;3.40;;;23.60;99.90;;;;;;5059745;28;20219;-69
2021/08/14 02:19:48;;;;;;;4.43;4.03;;;23.60;99.90;;;;;;5059928;28;20218;-69
2021/08/14 02:22:15;;;;;;;4.40;3.90;;;23.60;99.90;;;;;;5060619;28;20230;-69
2021/08/14 02:24:42;;;;;;;3.88;3.58;;;23.60;99.90;;;;;;5052724;28;20436;-69
2021/08/14 02:27:09;;;;;;;4.40;4.00;;;23.60;99.90;;;;;;5056120;28;20218;-69
2021/08/14 02:29:37;;;;;;;4.00;3.70;;;23.60;99.90;;;;;;5057999;28;20688;-69
2021/08/14 02:32:04;;;;;;;3.53;3.20;;;23.60;99.90;;;;;;5056528;28;20305;-69
2021/08/14 02:34:31;;;;;;;3.65;3.35;;;23.60;99.90;;;;;;5053346;28;20245;-69
2021/08/14 02:37:00;;;;;;;4.15;3.75;;;23.60;99.90;;;;;;5056643;28;20226;-70
2021/08/14 02:39:27;;;;;;;3.83;3.45;;;23.50;99.90;;;;;;5055456;28;20222;-69
2021/08/14 02:41:54;;;;;;;3.92;3.58;;;23.60;99.90;;;;;;5057721;28;20715;-69
2021/08/14 02:44:21;;;;;;;4.00;3.60;;;23.50;99.90;;;;;;5056358;28;20230;-69
2021/08/14 02:46:48;;;;;;;4.25;3.70;;;23.50;99.90;;;;;;5057517;28;20214;-71
2021/08/14 02:49:15;;;;;;;3.72;3.42;;;23.50;99.90;;;;;;5054396;28;20222;-69
2021/08/14 02:51:43;;;;;;;4.53;4.07;;;23.50;99.90;;;;;;5056181;28;20247;-69
2021/08/14 02:54:11;;;;;;;4.80;3.72;;;23.50;99.90;;;;;;5058202;28;20214;-69
2021/08/14 02:56:41;;;;;;;4.18;3.72;;;23.40;99.90;;;;;;5056034;28;20225;-69
2021/08/14 02:59:08;;;;;;;3.85;3.45;;;23.40;99.90;;;;;;5056791;28;20225;-69
2021/08/14 03:01:35;;;;;;;6.63;4.15;;;23.40;99.90;;;;;;5056344;28;20217;-69
2021/08/14 03:04:02;;;;;;;3.88;3.58;;;23.40;99.90;;;;;;5057906;28;20634;-69
2021/08/14 03:06:29;;;;;;;4.72;4.32;;;23.40;99.90;;;;;;5059823;28;20225;-69
2021/08/14 03:08:57;;;;;;;4.93;3.90;;;23.30;99.90;;;;;;5060720;28;20229;-70
2021/08/14 03:11:25;;;;;;;4.75;4.25;;;23.30;99.90;;;;;;5052214;28;20765;-69
2021/08/14 03:13:52;;;;;;;5.43;3.92;;;23.20;99.90;;;;;;5060078;28;20218;-69
2021/08/14 03:16:19;;;;;;;3.97;3.63;;;23.20;99.90;;;;;;5054829;28;20727;-69
2021/08/14 03:18:46;;;;;;;5.25;4.22;;;23.20;99.90;;;;;;5057418;28;20217;-70
2021/08/14 03:21:14;;;;;;;8.15;4.60;;;23.20;99.90;;;;;;5058209;28;20597;-70
2021/08/14 03:23:41;;;;;;;5.00;4.50;;;23.30;99.90;;;;;;5058216;28;20742;-70
2021/08/14 03:26:08;;;;;;;5.07;4.60;;;23.20;99.90;;;;;;5055843;28;20215;-71
2021/08/14 03:28:37;;;;;;;4.40;3.90;;;23.10;99.90;;;;;;5057398;28;20597;-70
2021/08/14 03:31:04;;;;;;;5.15;3.88;;;23.00;99.90;;;;;;5053493;28;20223;-70
2021/08/14 03:33:31;;;;;;;4.78;3.85;;;23.00;99.90;;;;;;5057592;28;20218;-71
2021/08/14 03:35:58;;;;;;;6.15;4.35;;;22.80;99.90;;;;;;5065981;28;20228;-70
2021/08/14 03:38:25;;;;;;;3.97;3.67;;;22.80;99.90;;;;;;5056657;28;20222;-70
2021/08/14 03:40:52;;;;;;;4.22;3.30;;;22.70;99.90;;;;;;5058195;28;20237;-71
2021/08/14 03:43:21;;;;;;;4.60;4.20;;;22.70;99.90;;;;;;5055378;28;20221;-70
2021/08/14 03:45:49;;;;;;;4.22;3.90;;;22.70;99.90;;;;;;5057388;28;20694;-70
2021/08/14 03:48:17;;;;;;;4.50;4.10;;;22.60;99.90;;;;;;5056166;28;20229;-70
2021/08/14 03:50:44;;;;;;;4.93;3.70;;;22.50;99.90;;;;;;5056397;28;20680;-70
2021/08/14 03:53:11;;;;;;;4.75;3.70;;;22.40;99.90;;;;;;5056336;28;20700;-70
2021/08/14 03:55:38;;;;;;;3.83;3.53;;;22.40;99.90;;;;;;5055719;28;20245;-70
2021/08/14 03:58:05;;;;;;;7.10;3.85;;;22.40;99.90;;;;;;5055369;28;20226;-70
2021/08/14 04:00:32;;;;;;;4.07;3.67;;;22.50;99.90;;;;;;5057820;28;20225;-70
2021/08/14 04:03:01;;;;;;;4.53;3.40;;;22.40;99.90;;;;;;5055241;28;20222;-70
2021/08/14 04:05:28;;;;;;;5.75;3.47;;;22.40;99.90;;;;;;5053700;28;20720;-70
2021/08/14 04:07:55;;;;;;;4.90;3.67;;;22.40;99.90;;;;;;5054315;28;20226;-70
2021/08/14 04:10:23;;;;;;;6.45;3.70;;;22.30;99.90;;;;;;5049978;28;20580;-70
2021/08/14 04:12:50;;;;;;;4.75;3.60;;;22.30;99.90;;;;;;5054635;28;20227;-71
2021/08/14 04:15:18;;;;;;;3.33;3.03;;;22.30;99.90;;;;;;5053345;28;20697;-70
2021/08/14 04:17:45;;;;;;;4.30;3.35;;;22.30;99.90;;;;;;5051270;28;20700;-70
2021/08/14 04:20:14;;;;;;;4.28;3.88;;;22.30;99.90;;;;;;5062268;28;20223;-71
2021/08/14 04:22:42;;;;;;;4.43;3.67;;;22.30;99.90;;;;;;5068544;28;22376;-70
2021/08/14 04:25:10;;;;;;;3.80;3.50;;;22.30;99.90;;;;;;5057180;28;20218;-70
2021/08/14 04:27:37;;;;;;;3.60;3.30;;;22.20;99.90;;;;;;5051396;28;20254;-70
2021/08/14 04:30:05;;;;;;;4.60;3.70;;;22.30;99.90;;;;;;5061194;28;20221;-71
2021/08/14 04:32:33;;;;;;;4.32;4.00;;;22.20;99.90;;;;;;5058151;28;20704;-71
2021/08/14 04:35:04;;;;;;;4.07;3.70;;;22.20;99.90;;;;;;5059949;28;20219;-70
2021/08/14 04:37:32;;;;;;;4.05;3.67;;;22.30;99.90;;;;;;5057175;28;20221;-70
2021/08/14 04:40:00;;;;;;;3.88;3.50;;;22.30;99.90;;;;;;5057764;28;20622;-70
2021/08/14 04:42:27;;;;;;;4.18;3.60;;;22.30;99.90;;;;;;5054276;28;20534;-70
2021/08/14 04:44:54;;;;;;;4.00;3.60;;;22.30;99.90;;;;;;5061933;28;20716;-71
2021/08/14 04:47:21;;;;;;;3.97;3.55;;;22.30;99.90;;;;;;5063576;28;20225;-69
2021/08/14 04:49:48;;;;;;;3.78;3.40;;;22.30;99.90;;;;;;5056471;28;20218;-70
2021/08/14 04:52:15;;;;;;;3.45;3.15;;;22.30;99.90;;;;;;5060480;28;20233;-71
2021/08/14 04:54:44;;;;;;;3.58;3.28;;;22.30;99.90;;;;;;5056804;28;20688;-70
2021/08/14 04:57:11;;;;;;;3.83;3.47;;;22.30;99.90;;;;;;5057054;28;25177;-70
2021/08/14 04:59:38;;;;;;;3.75;3.40;;;22.40;99.90;;;;;;5058830;28;20221;-70
2021/08/14 05:02:05;;;;;;;4.13;3.38;;;22.50;99.90;;;;;;5057568;28;20223;-70
2021/08/14 05:04:33;;;;;;;4.18;3.78;;;22.60;99.90;;;;;;5059703;28;20222;-71
2021/08/14 05:07:00;;;;;;;4.25;3.85;;;22.70;99.90;;;;;;5060276;28;20255;-70
2021/08/14 05:09:28;;;;;;;4.30;3.50;;;22.90;99.90;;;;;;5065952;28;20275;-70
2021/08/14 05:11:57;;;;;;;3.97;3.50;;;23.10;99.90;;;;;;5061182;28;20232;-70
2021/08/14 05:14:24;;;;;;;5.72;3.92;;;23.30;99.90;;;;;;5062243;28;20226;-70
2021/08/14 05:16:51;;;;;;;4.97;4.13;;;23.40;99.90;;;;;;5058340;28;20225;-70
2021/08/14 05:19:18;;;;;;;4.78;4.18;;;23.60;99.90;;;;;;5059663;28;20688;-70
2021/08/14 05:21:45;;;;;;;4.13;3.60;;;23.70;99.90;;;;;;5061308;28;20230;-70
2021/08/14 05:24:12;;;;;;;4.10;3.75;;;23.80;99.90;;;;;;5055522;28;20229;-70
2021/08/14 05:26:40;;;;;;;4.30;3.90;;;24.00;99.90;;;;;;5055466;28;20720;-70
2021/08/14 05:29:09;;;;;;;4.80;4.25;;;24.00;99.90;;;;;;5059411;28;20225;-70
2021/08/14 05:31:36;;;;;;;6.13;4.72;;;24.00;99.90;;;;;;5054814;28;20230;-70
2021/08/14 05:34:04;;;;;;;6.68;4.50;;;24.10;99.90;;;;;;5058204;28;20301;-70
2021/08/14 05:36:32;;;;;;;5.15;4.63;;;23.90;99.90;;;;;;5058292;28;20224;-70
2021/08/14 05:38:59;;;;;;;4.70;4.30;;;23.90;99.90;;;;;;5055001;28;20216;-70
2021/08/14 05:41:26;;;;;;;4.38;3.83;;;23.90;99.90;;;;;;5057307;28;20230;-70
2021/08/14 05:43:55;;;;;;;6.22;4.22;;;24.00;99.90;;;;;;5056158;28;20225;-70
2021/08/14 05:46:23;;;;;;;4.90;4.40;;;24.00;99.90;;;;;;5050164;28;20550;-70
2021/08/14 05:48:51;;;;;;;5.13;4.47;;;24.00;99.90;;;;;;5060449;28;20218;-70
2021/08/14 05:51:18;;;;;;;4.78;4.35;;;23.90;99.90;;;;;;5057809;28;20995;-71
2021/08/14 05:53:45;;;;;;;5.55;4.47;;;23.90;99.90;;;;;;5063247;28;20229;-71
2021/08/14 05:56:12;;;;;;;5.57;4.70;;;23.90;99.90;;;;;;5070540;28;20234;-70
2021/08/14 05:58:39;;;;;;;5.15;4.25;;;24.00;99.90;;;;;;5058643;28;20229;-70
2021/08/14 06:01:07;;;;;;;5.03;4.53;;;24.20;99.90;;;;;;5060377;28;20232;-72
2021/08/14 06:03:36;;;;;;;4.93;3.97;;;24.40;99.90;;;;;;5056014;28;20224;-70
2021/08/14 06:06:04;;;;;;;4.95;4.00;;;24.60;99.90;;;;;;5059542;28;20230;-70
2021/08/14 06:08:31;;;;;;;4.50;4.07;;;24.90;99.90;;;;;;5059325;28;20303;-71
2021/08/14 06:10:59;;;;;;;9.20;4.75;;;25.10;99.90;;;;;;5055626;28;20242;-70
2021/08/14 06:13:26;;;;;;;7.63;4.68;;;25.20;99.90;;;;;;5058029;28;20225;-70
2021/08/14 06:15:53;;;;;;;4.65;4.25;;;25.10;99.90;;;;;;5052887;28;20222;-70
2021/08/14 06:18:20;;;;;;;4.65;4.25;;;25.00;99.90;;;;;;5058321;28;20218;-70
2021/08/14 06:20:49;;;;;;;5.47;4.20;;;24.90;99.90;;;;;;5056725;28;20241;-70
2021/08/14 06:23:16;;;;;;;7.30;4.88;;;24.80;99.90;;;;;;5053889;28;20218;-71
2021/08/14 06:25:43;;;;;;;5.80;5.20;;;24.80;99.90;;;;;;5056897;28;20221;-70
2021/08/14 06:28:10;;;;;;;5.38;4.88;;;24.80;99.90;;;;;;5056131;28;20696;-70
2021/08/14 06:30:37;;;;;;;6.82;4.50;;;24.90;99.90;;;;;;5058414;28;20226;-70
2021/08/14 06:33:04;;;;;;;6.30;5.00;;;25.00;99.90;;;;;;5055632;28;20225;-70
2021/08/14 06:35:32;;;;;;;8.77;5.25;;;25.10;99.90;;;;;;5059758;28;20694;-70
2021/08/14 06:38:00;;;;;;;7.05;4.97;;;25.10;99.90;;;;;;5055660;28;21281;-71
2021/08/14 06:40:27;;;;;;;6.03;5.47;;;25.10;99.90;;;;;;5059848;28;20564;-71
2021/08/14 06:42:54;;;;;;;6.32;5.57;;;24.90;99.90;;;;;;5062145;28;20819;-69
2021/08/14 06:45:22;;;;;;;5.57;5.07;;;24.80;99.90;;;;;;5056053;28;20233;-69
2021/08/14 06:47:49;;;;;;;6.88;5.35;;;24.80;99.90;;;;;;5058639;28;20225;-69
2021/08/14 06:50:18;;;;;;;8.23;5.55;;;24.70;99.90;;;;;;5057398;28;20214;-69
2021/08/14 06:52:45;;;;;;;6.30;5.38;;;24.80;99.90;;;;;;5052254;28;20237;-69
2021/08/14 06:55:14;;;;;;;6.00;5.22;;;24.90;99.90;;;;;;5058880;28;20324;-69
2021/08/14 06:57:41;;;;;;;6.07;5.47;;;25.00;99.90;;;;;;5056672;28;20593;-69
2021/08/14 07:00:09;;;;;;;6.78;5.63;;;25.20;99.90;;;;;;5057099;28;20214;-69
2021/08/14 07:02:36;;;;;;;7.10;5.63;;;25.40;99.90;;;;;;5048881;28;20233;-69
2021/08/14 07:05:04;;;;;;;6.78;5.18;;;25.60;99.90;;;;;;5044490;28;20551;-69
2021/08/14 07:07:31;;;;;;;6.80;5.68;;;25.70;99.90;;;;;;5054089;28;20221;-69
2021/08/14 07:09:58;;;;;;;6.30;5.70;;;25.70;99.90;;;;;;5052355;28;20620;-69
2021/08/14 07:12:27;;;;;;;5.40;4.90;;;25.90;99.90;;;;;;5050574;28;20218;-69
2021/08/14 07:14:55;;;;;;;7.10;5.20;;;26.00;99.90;;;;;;5055208;28;20229;-69
2021/08/14 07:17:22;;;;;;;8.07;5.30;;;26.10;99.90;;;;;;5052640;28;20234;-69
2021/08/14 07:19:50;;;;;;;6.28;5.35;;;26.20;99.90;;;;;;5056014;28;20413;-69
2021/08/14 07:22:17;;;;;;;8.40;5.72;;;26.20;99.90;;;;;;5055936;28;20222;-69
2021/08/14 07:24:44;;;;;;;7.65;5.70;;;26.20;99.90;;;;;;5053953;28;20230;-70
2021/08/14 07:27:11;;;;;;;6.25;5.65;;;26.20;99.90;;;;;;5062225;28;20719;-70
2021/08/14 07:29:39;;;;;;;5.57;5.07;;;26.20;99.90;;;;;;5058841;28;20221;-69
2021/08/14 07:32:07;;;;;;;36.03;7.82;;;26.30;99.90;;;;;;5058212;28;20233;-69
2021/08/14 07:34:34;;;;;;;8.07;5.78;;;26.50;99.90;;;;;;5056432;28;20225;-69
2021/08/14 07:37:02;;;;;;;6.85;5.70;;;26.50;99.90;;;;;;5053633;28;20245;-69
2021/08/14 07:39:29;;;;;;;5.95;5.35;;;26.50;99.90;;;;;;5057394;28;20214;-70
2021/08/14 07:41:56;;;;;;;6.97;5.80;;;26.50;99.90;;;;;;5056921;28;20592;-69
2021/08/14 07:46:52;;;;;;;5.82;5.30;;;26.50;99.90;;;;;;5082582;28;20205;-77
2021/08/14 07:49:19;;;;;;;7.40;5.78;;;26.70;99.90;;;;;;5083721;28;20220;-76
2021/08/14 07:51:46;;;;;;;6.75;5.93;;;26.80;99.90;;;;;;5076631;28;20221;-76
2021/08/14 07:54:14;;;;;;;5.88;5.38;;;26.90;99.90;;;;;;5084303;28;20602;-77
2021/08/14 07:56:41;;;;;;;5.00;4.60;;;27.10;99.90;;;;;;5084325;28;20325;-77
2021/08/14 07:59:08;;;;;;;6.40;5.20;;;27.30;99.90;;;;;;5083507;28;20225;-76
2021/08/14 08:01:35;;;;;;;8.90;5.90;;;27.60;99.90;;;;;;5084823;28;20221;-77
2021/08/14 08:04:04;;;;;;;8.80;5.72;;;27.80;99.90;;;;;;5087619;28;20231;-77
2021/08/14 08:06:31;;;;;;;7.38;6.10;;;27.90;99.90;;;;;;5089068;28;20221;-77
2021/08/14 08:08:58;;;;;;;6.05;5.45;;;27.80;99.90;;;;;;5087299;28;20687;-76
2021/08/14 08:11:25;;;;;;;7.85;5.18;;;27.80;99.90;;;;;;5087840;28;20229;-77
2021/08/14 08:13:52;;;;;;;6.50;5.85;;;27.80;99.90;;;;;;5089177;28;20225;-79
2021/08/14 08:16:20;;;;;;;6.75;6.15;;;27.80;99.90;;;;;;5089486;28;20224;-78
2021/08/14 08:18:47;;;;;;;5.85;5.35;;;27.70;99.90;;;;;;5083851;28;20217;-80
2021/08/14 08:21:15;;;;;;;8.52;6.75;;;27.60;99.90;;;;;;5088928;28;20270;-78
2021/08/14 08:23:42;;;;;;;7.60;5.50;;;27.70;99.90;;;;;;5088090;28;20237;-78
2021/08/14 08:26:10;;;;;;;7.07;5.57;;;27.80;99.90;;;;;;5088768;28;20216;-78
2021/08/14 08:28:37;;;;;;;6.45;5.50;;;28.10;99.90;;;;;;5086975;28;20234;-76
2021/08/14 08:31:04;;;;;;;7.20;6.13;;;28.20;99.90;;;;;;5088583;28;20225;-78
2021/08/14 08:33:31;;;;;;;7.13;6.40;;;28.10;99.90;;;;;;5086430;28;20606;-78
2021/08/14 08:35:58;;;;;;;7.30;6.55;;;28.00;99.90;;;;;;5096052;28;20231;-77
2021/08/14 08:38:27;;;;;;;7.43;6.70;;;28.10;99.90;;;;;;5080261;28;20231;-78
2021/08/14 08:40:56;;;;;;;9.02;6.43;;;28.20;99.90;;;;;;5083559;28;20233;-77
2021/08/14 08:43:23;;;;;;;7.05;6.40;;;28.20;99.90;;;;;;5080947;28;20221;-77
2021/08/14 08:45:51;;;;;;;8.73;6.40;;;28.20;99.90;;;;;;5083209;28;20713;-77
2021/08/14 08:48:20;;;;;;;6.25;5.35;;;28.40;99.90;;;;;;5081385;28;20229;-77
2021/08/14 08:50:48;;;;;;;7.72;6.30;;;28.60;99.90;;;;;;5079660;28;20266;-77
2021/08/14 08:53:15;;;;;;;7.95;5.97;;;28.70;99.90;;;;;;5079775;28;20287;-77
2021/08/14 08:55:44;;;;;;;7.68;6.10;;;28.70;99.90;;;;;;5080679;28;20708;-77
2021/08/14 08:58:11;;;;;;;6.45;5.50;;;29.00;99.90;;;;;;5079569;28;20213;-74
2021/08/14 09:00:38;;;;;;;8.20;5.80;;;29.30;99.90;;;;;;5082942;28;20224;-77
2021/08/14 09:03:11;;;;;;;5.72;5.22;;;29.40;99.90;;;;;;5079074;28;20237;-76
2021/08/14 09:05:50;;;;;;;7.35;6.53;;;29.40;99.90;;;;;;5080401;28;20496;-77
2021/08/14 09:08:17;;;;;;;6.75;6.00;;;29.10;99.90;;;;;;5080462;28;20630;-76
2021/08/14 09:10:46;;;;;;;7.68;5.90;;;29.10;99.90;;;;;;5078401;28;20249;-75
2021/08/14 09:13:16;;;;;;;6.70;6.00;;;29.30;99.90;;;;;;5080173;28;20225;-76
2021/08/14 09:15:43;;;;;;;9.02;6.18;;;29.20;99.90;;;;;;5078459;28;20236;-77
2021/08/14 09:18:12;;;;;;;6.60;6.00;;;29.20;99.90;;;;;;5078890;28;20213;-77
2021/08/14 09:20:48;;;;;;;6.25;5.28;;;29.30;99.90;;;;;;5076574;28;20223;-77
2021/08/14 09:23:16;;;;;;;7.03;5.75;;;29.50;99.90;;;;;;5079359;28;20221;-77
2021/08/14 09:25:46;;;;;;;7.38;6.00;;;29.50;99.90;;;;;;5086892;28;20232;-77
2021/08/14 09:28:15;;;;;;;7.55;6.32;;;29.40;99.90;;;;;;5087993;28;20225;-78
2021/08/14 09:30:48;;;;;;;7.50;6.05;;;29.40;99.90;;;;;;5081837;28;20235;-77
2021/08/14 09:33:17;;;;;;;8.27;6.28;;;29.50;99.90;;;;;;5085643;28;20233;-78
2021/08/14 09:35:45;;;;;;;9.32;6.20;;;29.40;99.90;;;;;;5083624;28;20228;-77
2021/08/14 09:38:15;;;;;;;7.28;5.80;;;29.60;99.90;;;;;;5085105;28;20252;-77
2021/08/14 09:40:45;;;;;;;6.88;5.82;;;29.70;99.90;;;;;;5086718;28;20229;-78
2021/08/14 09:43:14;;;;;;;8.38;5.60;;;29.80;99.90;;;;;;5084912;28;20233;-79
2021/08/14 09:45:55;;;;;;;7.55;5.32;;;30.20;99.90;;;;;;5082551;28;20595;-79
2021/08/14 09:48:24;;;;;;;8.55;5.65;;;30.40;99.90;;;;;;5082167;28;20228;-78
2021/08/14 09:50:51;;;;;;;6.88;5.53;;;30.50;99.90;;;;;;5086632;28;20232;-78
2021/08/14 09:53:21;;;;;;;6.55;6.05;;;30.60;99.90;;;;;;5085408;28;20228;-79
2021/08/14 09:55:53;;;;;;;7.00;5.78;;;30.50;99.90;;;;;;5086532;28;20236;-80
2021/08/14 09:58:24;;;;;;;7.07;5.97;;;30.40;99.90;;;;;;5082441;28;20291;-79
2021/08/14 10:00:52;;;;;;;6.60;5.15;;;30.40;99.90;;;;;;5083426;28;20262;-78
2021/08/14 10:03:20;;;;;;;6.43;5.70;;;30.30;99.90;;;;;;5086747;28;20221;-77
2021/08/14 10:05:47;;;;;;;5.78;5.28;;;30.30;99.90;;;;;;5086326;28;20217;-79
2021/08/14 10:08:14;;;;;;;6.28;5.28;;;30.30;99.90;;;;;;5087928;28;20217;-78
2021/08/14 10:10:42;;;;;;;7.60;5.78;;;30.50;99.90;;;;;;5085123;28;20700;-79
2021/08/14 10:13:11;;;;;;;7.78;6.07;;;30.60;99.90;;;;;;5084363;28;20221;-79
2021/08/14 10:15:40;;;;;;;6.38;5.70;;;30.60;99.90;;;;;;5086083;28;20476;-78
2021/08/14 10:18:07;;;;;;;5.90;5.40;;;30.60;99.90;;;;;;5082744;28;20217;-77
2021/08/14 10:20:35;;;;;;;5.65;5.15;;;30.70;99.90;;;;;;5086341;28;20217;-78
2021/08/14 10:23:04;;;;;;;6.38;5.70;;;30.80;99.90;;;;;;5084537;28;20231;-79
2021/08/14 10:25:32;;;;;;;6.50;5.90;;;31.00;99.90;;;;;;5087043;28;20241;-79
2021/08/14 10:28:01;;;;;;;5.95;5.35;;;31.10;99.90;;;;;;5085249;28;20300;-78
2021/08/14 10:30:48;;;;;;;6.28;5.68;;;31.30;99.90;;;;;;5085374;28;20217;-78
2021/08/14 10:33:37;;;;;;;7.55;6.47;;;31.30;99.90;;;;;;5085046;28;20592;-78
2021/08/14 10:36:47;;;;;;;6.22;5.57;;;31.40;99.90;;;;;;5082664;28;20271;-79
2021/08/14 10:39:19;;;;;;;6.32;5.30;;;31.40;99.90;;;;;;5081388;28;20240;-78
2021/08/14 10:41:50;;;;;;;6.85;5.63;;;31.40;99.90;;;;;;5087018;28;20217;-79
2021/08/14 10:44:32;;;;;;;6.75;5.88;;;31.40;99.90;;;;;;5085457;28;20217;-78
2021/08/14 10:47:00;;;;;;;5.47;4.97;;;31.50;99.90;;;;;;5078195;28;20228;-79
2021/08/14 10:49:46;;;;;;;5.88;5.38;;;31.50;99.90;;;;;;5083542;28;20224;-78
2021/08/14 10:52:15;;;;;;;8.60;5.20;;;31.50;99.90;;;;;;5081157;28;20274;-78
2021/08/14 10:55:04;;;;;;;7.30;5.40;;;31.60;99.90;;;;;;5069504;28;20232;-78
2021/08/14 10:57:38;;;;;;;7.00;5.57;;;31.50;99.90;;;;;;5082892;28;20304;-80
2021/08/14 11:00:07;;;;;;;6.22;5.05;;;31.40;99.90;;;;;;5086546;28;20219;-79
2021/08/14 11:02:55;;;;;;;7.53;6.15;;;31.30;99.90;;;;;;5084612;28;20228;-78
2021/08/14 11:05:26;;;;;;;5.80;5.20;;;31.40;99.90;;;;;;5082855;28;20217;-78
2021/08/14 11:07:53;;;;;;;6.55;5.45;;;31.50;99.90;;;;;;5084684;28;20245;-79
2021/08/14 11:10:34;;;;;;;6.50;5.75;;;31.80;99.90;;;;;;5084735;28;20223;-78
2021/08/14 11:13:01;;;;;;;7.30;6.00;;;32.00;99.90;;;;;;5081998;28;20503;-78
2021/08/14 11:15:30;;;;;;;6.78;5.97;;;31.70;99.90;;;;;;5084702;28;20229;-79
2021/08/14 11:18:01;;;;;;;6.47;5.82;;;31.80;99.90;;;;;;5084063;28;20228;-78
2021/08/14 11:20:36;;;;;;;6.78;6.18;;;32.00;99.90;;;;;;5082251;28;20225;-78
2021/08/14 11:23:05;;;;;;;7.68;5.82;;;32.00;99.90;;;;;;5084424;28;20224;-78
2021/08/14 11:25:37;;;;;;;8.63;5.70;;;32.00;99.90;;;;;;5082344;28;20225;-79
2021/08/14 11:28:06;;;;;;;8.68;5.38;;;32.00;99.90;;;;;;5084145;28;20226;-78
2021/08/14 11:30:36;;;;;;;5.43;4.82;;;32.00;99.90;;;;;;5083840;28;20217;-79
2021/08/14 11:33:07;;;;;;;6.75;5.47;;;32.00;99.90;;;;;;5084528;28;20236;-78
2021/08/14 11:35:36;;;;;;;7.50;6.28;;;32.30;99.90;;;;;;5084486;28;20229;-78
2021/08/14 11:38:05;;;;;;;5.78;5.18;;;32.30;99.90;;;;;;5086172;28;20229;-78
2021/08/14 11:40:35;;;;;;;6.13;5.50;;;32.50;99.90;;;;;;5086463;28;20547;-79
2021/08/14 11:43:04;;;;;;;6.50;5.78;;;32.60;99.90;;;;;;5087868;28;20232;-79
2021/08/14 11:45:33;;;;;;;6.90;5.25;;;32.60;99.90;;;;;;5087603;28;20475;-77
2021/08/14 11:48:02;;;;;;;6.03;5.40;;;32.40;99.90;;;;;;5088281;28;20213;-79
2021/08/14 11:50:35;;;;;;;6.03;4.72;;;32.40;99.90;;;;;;5088591;28;20220;-78
2021/08/14 11:53:03;;;;;;;5.65;5.15;;;32.30;99.90;;;;;;5085916;28;20217;-79
2021/08/14 11:55:30;;;;;;;6.22;4.95;;;32.30;99.90;;;;;;5086302;28;20517;-78
2021/08/14 11:57:57;;;;;;;5.53;4.97;;;32.30;99.90;;;;;;5087575;28;20216;-78
2021/08/14 12:00:27;;;;;;;5.25;4.60;;;32.40;99.90;;;;;;5086856;28;20229;-79
2021/08/14 12:03:06;;;;;;;5.22;4.72;;;32.60;99.90;;;;;;5088405;28;20221;-78
2021/08/14 12:05:35;;;;;;;5.10;4.60;;;32.70;99.90;;;;;;5087085;28;20217;-78
2021/08/14 12:08:03;;;;;;;6.65;4.65;;;32.80;99.90;;;;;;5086134;28;20226;-79
2021/08/14 12:10:30;;;;;;;5.78;4.43;;;32.70;99.90;;;;;;5086848;28;20308;-78
2021/08/14 12:12:59;;;;;;;5.30;4.80;;;32.80;99.90;;;;;;5085122;28;20239;-79
2021/08/14 12:15:37;;;;;;;5.35;4.85;;;32.80;99.90;;;;;;5088742;28;20228;-79
2021/08/14 12:18:05;;;;;;;5.53;4.68;;;32.60;99.90;;;;;;5086773;28;20710;-78
2021/08/14 12:20:35;;;;;;;5.47;4.28;;;32.40;99.90;;;;;;5085487;28;20232;-78
2021/08/14 12:23:23;;;;;;;6.90;4.80;;;32.40;99.90;;;;;;5088608;28;20227;-80
2021/08/14 12:25:52;;;;;;;7.20;5.43;;;32.50;99.90;;;;;;5085193;28;20248;-79
2021/08/14 12:28:19;;;;;;;5.15;4.55;;;32.60;99.90;;;;;;5087334;28;20209;-80
2021/08/14 12:30:46;;;;;;;5.05;4.53;;;32.70;99.90;;;;;;5087668;28;20266;-79
2021/08/14 12:33:24;;;;;;;6.65;5.00;;;32.70;99.90;;;;;;5086561;28;20225;-79
2021/08/14 12:36:04;;;;;;;4.80;4.30;;;32.60;99.90;;;;;;5087919;28;20233;-80
2021/08/14 12:38:32;;;;;;;5.95;4.50;;;32.70;99.90;;;;;;5086194;28;20311;-79
2021/08/14 12:41:14;;;;;;;5.53;4.95;;;32.60;99.90;;;;;;5086530;28;20221;-78
2021/08/14 12:43:44;;;;;;;5.68;4.90;;;32.80;99.90;;;;;;5084702;28;20286;-78
2021/08/14 12:46:18;;;;;;;6.13;4.60;;;32.80;99.90;;;;;;5087846;28;20221;-78
2021/08/14 12:49:19;;;;;;;7.63;4.78;;;32.80;99.90;;;;;;5082535;28;20221;-78
2021/08/14 12:52:00;;;;;;;5.18;4.78;;;32.80;99.90;;;;;;5088009;28;20226;-80
2021/08/14 12:54:28;;;;;;;5.03;4.55;;;32.90;99.90;;;;;;5084476;28;20706;-79
2021/08/14 12:56:55;;;;;;;8.18;5.18;;;32.90;99.90;;;;;;5087974;28;20278;-79
2021/08/14 12:59:23;;;;;;;5.25;4.72;;;32.90;99.90;;;;;;5086793;28;20232;-79
2021/08/14 13:01:54;;;;;;;6.32;5.15;;;33.00;99.90;;;;;;5087293;28;20225;-79
2021/08/14 13:04:22;;;;;;;6.22;5.20;;;32.90;99.90;;;;;;5087655;28;20276;-79